sensor_id;sensor_type;location;lat;lon;timestamp;temperature;humidity
22271;DHT22;11304;53.520;10.104;2023-04-24T00:00:16;12.60;99.90
22271;DHT22;11304;53.520;10.104;2023-04-24T00:02:43;12.60;99.90
22271;DHT22;11304;53.520;10.104;2023-04-24T00:05:16;12.60;99.90
22271;DHT22;11304;53.520;10.104;2023-04-24T00:07:43;12.50;99.90
22271;DHT22;11304;53.520;10.104;2023-04-24T00:10:10;12.50;99.90
22271;DHT22;11304;53.520;10.104;2023-04-24T00:12:36;12.50;99.90
22271;DHT22;11304;53.520;10.104;2023-04-24T00:15:02;12.40;99.90
22271;DHT22;11304;53.520;10.104;2023-04-24T00:17:28;12.40;99.90
22271;DHT22;11304;53.520;10.104;2023-04-24T00:19:54;12.30;99.90
22271;DHT22;11304;53.520;10.104;2023-04-24T00:22:28;12.30;99.90
22271;DHT22;11304;53.520;10.104;2023-04-24T00:24:54;12.20;99.90
22271;DHT22;11304;53.520;10.104;2023-04-24T00:27:20;12.20;99.90
22271;DHT22;11304;53.520;10.104;2023-04-24T00:29:46;12.20;99.90
22271;DHT22;11304;53.520;10.104;2023-04-24T00:32:12;12.20;99.90
22271;DHT22;11304;53.520;10.104;2023-04-24T00:34:38;12.10;99.90
22271;DHT22;11304;53.520;10.104;2023-04-24T00:37:04;12.10;99.90
22271;DHT22;11304;53.520;10.104;2023-04-24T00:39:30;12.10;99.90
22271;DHT22;11304;53.520;10.104;2023-04-24T00:41:56;12.10;99.90
22271;DHT22;11304;53.520;10.104;2023-04-24T00:44:22;12.00;99.90
22271;DHT22;11304;53.520;10.104;2023-04-24T00:46:49;12.00;99.90
22271;DHT22;11304;53.520;10.104;2023-04-24T00:49:18;12.10;99.90
22271;DHT22;11304;53.520;10.104;2023-04-24T00:51:44;12.00;99.90
22271;DHT22;11304;53.520;10.104;2023-04-24T00:54:12;12.00;99.90
22271;DHT22;11304;53.520;10.104;2023-04-24T00:56:37;11.90;99.90
22271;DHT22;11304;53.520;10.104;2023-04-24T00:59:03;11.90;99.90
22271;DHT22;11304;53.520;10.104;2023-04-24T01:01:29;12.10;99.90
22271;DHT22;11304;53.520;10.104;2023-04-24T01:03:57;12.00;99.90
22271;DHT22;11304;53.520;10.104;2023-04-24T01:06:23;12.20;99.90
22271;DHT22;11304;53.520;10.104;2023-04-24T01:08:52;12.00;99.90
22271;DHT22;11304;53.520;10.104;2023-04-24T01:11:18;11.90;99.90
22271;DHT22;11304;53.520;10.104;2023-04-24T01:13:46;11.90;99.90
22271;DHT22;11304;53.520;10.104;2023-04-24T01:16:13;11.90;99.90
22271;DHT22;11304;53.520;10.104;2023-04-24T01:18:38;11.80;99.90
22271;DHT22;11304;53.520;10.104;2023-04-24T01:21:05;11.80;99.90
22271;DHT22;11304;53.520;10.104;2023-04-24T01:23:32;11.80;99.90
22271;DHT22;11304;53.520;10.104;2023-04-24T01:25:58;11.70;99.90
22271;DHT22;11304;53.520;10.104;2023-04-24T01:28:24;11.70;99.90
22271;DHT22;11304;53.520;10.104;2023-04-24T01:30:50;11.70;99.90
22271;DHT22;11304;53.520;10.104;2023-04-24T01:33:15;11.60;99.90
22271;DHT22;11304;53.520;10.104;2023-04-24T01:35:42;11.60;99.90
22271;DHT22;11304;53.520;10.104;2023-04-24T01:38:07;11.50;99.90
22271;DHT22;11304;53.520;10.104;2023-04-24T01:40:34;11.50;99.90
22271;DHT22;11304;53.520;10.104;2023-04-24T01:43:00;11.50;99.90
22271;DHT22;11304;53.520;10.104;2023-04-24T01:45:26;11.50;99.90
22271;DHT22;11304;53.520;10.104;2023-04-24T01:47:51;11.50;99.90
22271;DHT22;11304;53.520;10.104;2023-04-24T01:50:18;11.60;99.90
22271;DHT22;11304;53.520;10.104;2023-04-24T01:52:43;11.50;99.90
22271;DHT22;11304;53.520;10.104;2023-04-24T01:55:10;11.40;99.90
22271;DHT22;11304;53.520;10.104;2023-04-24T01:57:36;11.30;99.90
22271;DHT22;11304;53.520;10.104;2023-04-24T02:00:03;11.30;99.90
22271;DHT22;11304;53.520;10.104;2023-04-24T02:02:32;11.20;99.90
22271;DHT22;11304;53.520;10.104;2023-04-24T02:04:58;11.20;99.90
22271;DHT22;11304;53.520;10.104;2023-04-24T02:07:24;11.20;99.90
22271;DHT22;11304;53.520;10.104;2023-04-24T02:09:49;11.10;99.90
22271;DHT22;11304;53.520;10.104;2023-04-24T02:12:15;11.00;99.90
22271;DHT22;11304;53.520;10.104;2023-04-24T02:14:43;11.00;99.90
22271;DHT22;11304;53.520;10.104;2023-04-24T02:17:09;10.90;99.90
22271;DHT22;11304;53.520;10.104;2023-04-24T02:19:35;10.90;99.90
22271;DHT22;11304;53.520;10.104;2023-04-24T02:22:00;10.90;99.90
22271;DHT22;11304;53.520;10.104;2023-04-24T02:24:26;10.80;99.90
22271;DHT22;11304;53.520;10.104;2023-04-24T02:26:52;10.80;99.90
22271;DHT22;11304;53.520;10.104;2023-04-24T02:29:17;10.80;99.90
22271;DHT22;11304;53.520;10.104;2023-04-24T02:31:43;10.80;99.90
22271;DHT22;11304;53.520;10.104;2023-04-24T02:34:09;10.80;99.90
22271;DHT22;11304;53.520;10.104;2023-04-24T02:36:35;10.80;99.90
22271;DHT22;11304;53.520;10.104;2023-04-24T02:39:00;10.80;99.90
22271;DHT22;11304;53.520;10.104;2023-04-24T02:41:26;10.80;99.90
22271;DHT22;11304;53.520;10.104;2023-04-24T02:43:57;10.80;99.90
22271;DHT22;11304;53.520;10.104;2023-04-24T02:46:23;10.70;99.90
22271;DHT22;11304;53.520;10.104;2023-04-24T02:48:49;10.80;99.90
22271;DHT22;11304;53.520;10.104;2023-04-24T02:51:14;10.80;99.90
22271;DHT22;11304;53.520;10.104;2023-04-24T02:53:40;10.70;99.90
22271;DHT22;11304;53.520;10.104;2023-04-24T02:56:06;10.70;99.90
22271;DHT22;11304;53.520;10.104;2023-04-24T02:58:32;10.80;99.90
22271;DHT22;11304;53.520;10.104;2023-04-24T03:00:57;10.80;99.90
22271;DHT22;11304;53.520;10.104;2023-04-24T03:03:23;10.80;99.90
22271;DHT22;11304;53.520;10.104;2023-04-24T03:05:49;10.80;99.90
22271;DHT22;11304;53.520;10.104;2023-04-24T03:08:15;10.80;99.90
22271;DHT22;11304;53.520;10.104;2023-04-24T03:10:41;10.70;99.90
22271;DHT22;11304;53.520;10.104;2023-04-24T03:13:07;10.80;99.90
22271;DHT22;11304;53.520;10.104;2023-04-24T03:15:32;10.80;99.90
22271;DHT22;11304;53.520;10.104;2023-04-24T03:17:58;10.70;99.90
22271;DHT22;11304;53.520;10.104;2023-04-24T03:20:24;10.60;99.90
22271;DHT22;11304;53.520;10.104;2023-04-24T03:22:50;10.60;99.90
22271;DHT22;11304;53.520;10.104;2023-04-24T03:25:15;10.60;99.90
22271;DHT22;11304;53.520;10.104;2023-04-24T03:27:41;10.50;99.90
22271;DHT22;11304;53.520;10.104;2023-04-24T03:30:07;10.50;99.90
22271;DHT22;11304;53.520;10.104;2023-04-24T03:32:33;10.40;99.90
22271;DHT22;11304;53.520;10.104;2023-04-24T03:34:59;10.40;99.90
22271;DHT22;11304;53.520;10.104;2023-04-24T03:37:25;10.50;99.90
22271;DHT22;11304;53.520;10.104;2023-04-24T03:39:52;10.50;99.90
22271;DHT22;11304;53.520;10.104;2023-04-24T03:42:17;10.50;99.90
22271;DHT22;11304;53.520;10.104;2023-04-24T03:44:43;10.40;99.90
22271;DHT22;11304;53.520;10.104;2023-04-24T03:47:09;10.50;99.90
22271;DHT22;11304;53.520;10.104;2023-04-24T03:49:34;10.40;99.90
22271;DHT22;11304;53.520;10.104;2023-04-24T03:52:00;10.50;99.90
22271;DHT22;11304;53.520;10.104;2023-04-24T03:54:26;10.40;99.90
22271;DHT22;11304;53.520;10.104;2023-04-24T03:56:52;10.40;99.90
22271;DHT22;11304;53.520;10.104;2023-04-24T03:59:18;10.30;99.90
22271;DHT22;11304;53.520;10.104;2023-04-24T04:01:44;10.30;99.90
22271;DHT22;11304;53.520;10.104;2023-04-24T04:04:11;10.30;99.90
22271;DHT22;11304;53.520;10.104;2023-04-24T04:06:36;10.20;99.90
22271;DHT22;11304;53.520;10.104;2023-04-24T04:09:02;10.20;99.90
22271;DHT22;11304;53.520;10.104;2023-04-24T04:11:29;10.10;99.90
22271;DHT22;11304;53.520;10.104;2023-04-24T04:13:55;10.10;99.90
22271;DHT22;11304;53.520;10.104;2023-04-24T04:16:22;10.10;99.90
22271;DHT22;11304;53.520;10.104;2023-04-24T04:18:48;10.10;99.90
22271;DHT22;11304;53.520;10.104;2023-04-24T04:21:13;10.20;99.90
22271;DHT22;11304;53.520;10.104;2023-04-24T04:23:39;10.10;99.90
22271;DHT22;11304;53.520;10.104;2023-04-24T04:26:05;10.10;99.90
22271;DHT22;11304;53.520;10.104;2023-04-24T04:28:31;10.00;99.90
22271;DHT22;11304;53.520;10.104;2023-04-24T04:30:58;10.10;99.90
22271;DHT22;11304;53.520;10.104;2023-04-24T04:33:24;10.10;99.90
22271;DHT22;11304;53.520;10.104;2023-04-24T04:35:51;10.10;99.90
22271;DHT22;11304;53.520;10.104;2023-04-24T04:38:22;10.30;99.90
22271;DHT22;11304;53.520;10.104;2023-04-24T04:40:48;10.30;99.90
22271;DHT22;11304;53.520;10.104;2023-04-24T04:43:14;10.40;99.90
22271;DHT22;11304;53.520;10.104;2023-04-24T04:45:42;10.40;99.90
22271;DHT22;11304;53.520;10.104;2023-04-24T04:48:09;10.40;99.90
22271;DHT22;11304;53.520;10.104;2023-04-24T04:50:37;10.50;99.90
22271;DHT22;11304;53.520;10.104;2023-04-24T04:53:02;10.70;99.90
22271;DHT22;11304;53.520;10.104;2023-04-24T04:55:28;11.00;99.90
22271;DHT22;11304;53.520;10.104;2023-04-24T04:57:54;11.30;99.90
22271;DHT22;11304;53.520;10.104;2023-04-24T05:00:21;11.60;99.90
22271;DHT22;11304;53.520;10.104;2023-04-24T05:02:49;11.80;99.90
22271;DHT22;11304;53.520;10.104;2023-04-24T05:05:15;12.00;99.90
22271;DHT22;11304;53.520;10.104;2023-04-24T05:07:42;12.20;99.90
22271;DHT22;11304;53.520;10.104;2023-04-24T05:10:08;12.40;99.90
22271;DHT22;11304;53.520;10.104;2023-04-24T05:12:34;12.50;99.90
22271;DHT22;11304;53.520;10.104;2023-04-24T05:15:00;12.70;99.90
22271;DHT22;11304;53.520;10.104;2023-04-24T05:17:25;12.80;99.90
22271;DHT22;11304;53.520;10.104;2023-04-24T05:19:51;13.00;99.90
22271;DHT22;11304;53.520;10.104;2023-04-24T05:22:17;13.20;99.90
22271;DHT22;11304;53.520;10.104;2023-04-24T05:24:46;13.50;99.90
22271;DHT22;11304;53.520;10.104;2023-04-24T05:27:11;14.00;99.90
22271;DHT22;11304;53.520;10.104;2023-04-24T05:29:37;14.70;99.90
22271;DHT22;11304;53.520;10.104;2023-04-24T05:32:03;15.20;99.90
22271;DHT22;11304;53.520;10.104;2023-04-24T05:34:28;15.70;99.90
22271;DHT22;11304;53.520;10.104;2023-04-24T05:36:54;16.00;99.90
22271;DHT22;11304;53.520;10.104;2023-04-24T05:39:20;16.30;99.90
22271;DHT22;11304;53.520;10.104;2023-04-24T05:41:46;16.50;99.90
22271;DHT22;11304;53.520;10.104;2023-04-24T05:44:11;16.80;99.90
22271;DHT22;11304;53.520;10.104;2023-04-24T05:46:37;16.80;99.90
22271;DHT22;11304;53.520;10.104;2023-04-24T05:49:03;16.80;99.90
22271;DHT22;11304;53.520;10.104;2023-04-24T05:51:28;16.70;99.90
22271;DHT22;11304;53.520;10.104;2023-04-24T05:53:54;16.50;99.90
22271;DHT22;11304;53.520;10.104;2023-04-24T05:56:20;16.40;99.90
22271;DHT22;11304;53.520;10.104;2023-04-24T05:58:46;16.30;99.90
22271;DHT22;11304;53.520;10.104;2023-04-24T06:01:12;16.40;99.90
22271;DHT22;11304;53.520;10.104;2023-04-24T06:03:40;16.50;99.90
22271;DHT22;11304;53.520;10.104;2023-04-24T06:06:07;16.80;99.90
22271;DHT22;11304;53.520;10.104;2023-04-24T06:08:34;17.10;99.90
22271;DHT22;11304;53.520;10.104;2023-04-24T06:11:00;17.60;99.90
22271;DHT22;11304;53.520;10.104;2023-04-24T06:13:26;18.00;99.90
22271;DHT22;11304;53.520;10.104;2023-04-24T06:15:52;18.10;99.90
22271;DHT22;11304;53.520;10.104;2023-04-24T06:18:18;18.10;99.90
22271;DHT22;11304;53.520;10.104;2023-04-24T06:20:47;17.80;99.90
22271;DHT22;11304;53.520;10.104;2023-04-24T06:23:12;17.70;99.90
22271;DHT22;11304;53.520;10.104;2023-04-24T06:25:38;18.00;99.90
22271;DHT22;11304;53.520;10.104;2023-04-24T06:28:04;17.90;99.90
22271;DHT22;11304;53.520;10.104;2023-04-24T06:30:30;17.80;99.90
22271;DHT22;11304;53.520;10.104;2023-04-24T06:32:56;17.80;99.90
22271;DHT22;11304;53.520;10.104;2023-04-24T06:35:22;17.90;99.90
22271;DHT22;11304;53.520;10.104;2023-04-24T06:37:47;17.90;99.90
22271;DHT22;11304;53.520;10.104;2023-04-24T06:40:13;18.10;99.90
22271;DHT22;11304;53.520;10.104;2023-04-24T06:42:39;18.00;99.90
22271;DHT22;11304;53.520;10.104;2023-04-24T06:45:05;17.90;99.90
22271;DHT22;11304;53.520;10.104;2023-04-24T06:47:31;17.90;99.90
22271;DHT22;11304;53.520;10.104;2023-04-24T06:49:57;18.10;99.90
22271;DHT22;11304;53.520;10.104;2023-04-24T06:52:23;18.10;99.90
22271;DHT22;11304;53.520;10.104;2023-04-24T06:54:49;18.20;99.90
22271;DHT22;11304;53.520;10.104;2023-04-24T06:57:15;18.00;99.90
22271;DHT22;11304;53.520;10.104;2023-04-24T06:59:42;18.00;99.90
22271;DHT22;11304;53.520;10.104;2023-04-24T07:02:07;17.90;99.90
22271;DHT22;11304;53.520;10.104;2023-04-24T07:04:33;17.90;99.90
22271;DHT22;11304;53.520;10.104;2023-04-24T07:06:59;17.70;99.90
22271;DHT22;11304;53.520;10.104;2023-04-24T07:09:26;17.60;99.90
22271;DHT22;11304;53.520;10.104;2023-04-24T07:11:52;17.40;99.90
22271;DHT22;11304;53.520;10.104;2023-04-24T07:14:19;17.50;99.90
22271;DHT22;11304;53.520;10.104;2023-04-24T07:16:45;17.40;99.90
22271;DHT22;11304;53.520;10.104;2023-04-24T07:19:12;16.90;99.90
22271;DHT22;11304;53.520;10.104;2023-04-24T07:21:38;16.60;99.90
22271;DHT22;11304;53.520;10.104;2023-04-24T07:24:04;16.50;99.90
22271;DHT22;11304;53.520;10.104;2023-04-24T07:26:30;16.30;99.90
22271;DHT22;11304;53.520;10.104;2023-04-24T07:28:56;16.40;99.90
22271;DHT22;11304;53.520;10.104;2023-04-24T07:31:21;16.80;99.90
22271;DHT22;11304;53.520;10.104;2023-04-24T07:33:48;16.90;99.90
22271;DHT22;11304;53.520;10.104;2023-04-24T07:36:13;16.90;99.90
22271;DHT22;11304;53.520;10.104;2023-04-24T07:38:44;16.80;99.90
22271;DHT22;11304;53.520;10.104;2023-04-24T07:41:10;16.60;99.90
22271;DHT22;11304;53.520;10.104;2023-04-24T07:43:36;16.90;99.90
22271;DHT22;11304;53.520;10.104;2023-04-24T07:46:02;16.90;99.90
22271;DHT22;11304;53.520;10.104;2023-04-24T07:48:27;16.70;99.90
22271;DHT22;11304;53.520;10.104;2023-04-24T07:50:53;16.80;99.90
22271;DHT22;11304;53.520;10.104;2023-04-24T07:53:19;17.00;99.90
22271;DHT22;11304;53.520;10.104;2023-04-24T07:55:45;17.00;99.90
22271;DHT22;11304;53.520;10.104;2023-04-24T07:58:11;17.00;99.90
22271;DHT22;11304;53.520;10.104;2023-04-24T08:00:36;17.00;99.90
22271;DHT22;11304;53.520;10.104;2023-04-24T08:03:02;16.90;99.90
22271;DHT22;11304;53.520;10.104;2023-04-24T08:05:28;16.80;99.90
22271;DHT22;11304;53.520;10.104;2023-04-24T08:07:54;16.30;99.90
22271;DHT22;11304;53.520;10.104;2023-04-24T08:10:23;15.90;99.90
22271;DHT22;11304;53.520;10.104;2023-04-24T08:12:49;15.70;99.90
22271;DHT22;11304;53.520;10.104;2023-04-24T08:15:15;15.70;99.90
22271;DHT22;11304;53.520;10.104;2023-04-24T08:17:40;15.70;99.90
22271;DHT22;11304;53.520;10.104;2023-04-24T08:20:07;15.90;99.90
22271;DHT22;11304;53.520;10.104;2023-04-24T08:22:39;15.70;99.90
22271;DHT22;11304;53.520;10.104;2023-04-24T08:25:05;15.60;99.90
22271;DHT22;11304;53.520;10.104;2023-04-24T08:27:32;15.40;99.90
22271;DHT22;11304;53.520;10.104;2023-04-24T08:29:57;15.30;99.90
22271;DHT22;11304;53.520;10.104;2023-04-24T08:32:24;15.00;99.90
22271;DHT22;11304;53.520;10.104;2023-04-24T08:34:50;14.80;99.90
22271;DHT22;11304;53.520;10.104;2023-04-24T08:37:18;14.70;99.90
22271;DHT22;11304;53.520;10.104;2023-04-24T08:39:44;14.60;99.90
22271;DHT22;11304;53.520;10.104;2023-04-24T08:42:11;14.60;99.90
22271;DHT22;11304;53.520;10.104;2023-04-24T08:44:38;14.70;99.90
22271;DHT22;11304;53.520;10.104;2023-04-24T08:47:04;14.80;99.90
22271;DHT22;11304;53.520;10.104;2023-04-24T08:49:31;14.80;99.90
22271;DHT22;11304;53.520;10.104;2023-04-24T08:51:57;14.60;99.90
22271;DHT22;11304;53.520;10.104;2023-04-24T08:54:23;14.50;99.90
22271;DHT22;11304;53.520;10.104;2023-04-24T08:56:50;14.60;99.90
22271;DHT22;11304;53.520;10.104;2023-04-24T08:59:18;14.70;99.90
22271;DHT22;11304;53.520;10.104;2023-04-24T09:01:45;14.90;99.90
22271;DHT22;11304;53.520;10.104;2023-04-24T09:04:12;15.10;99.90
22271;DHT22;11304;53.520;10.104;2023-04-24T09:06:40;15.20;99.90
22271;DHT22;11304;53.520;10.104;2023-04-24T09:09:07;15.30;99.90
22271;DHT22;11304;53.520;10.104;2023-04-24T09:11:34;15.40;99.90
22271;DHT22;11304;53.520;10.104;2023-04-24T09:14:00;15.50;99.90
22271;DHT22;11304;53.520;10.104;2023-04-24T09:16:27;15.30;99.90
22271;DHT22;11304;53.520;10.104;2023-04-24T09:18:53;15.20;99.90
22271;DHT22;11304;53.520;10.104;2023-04-24T09:21:21;15.10;99.90
22271;DHT22;11304;53.520;10.104;2023-04-24T09:24:01;14.80;99.90
22271;DHT22;11304;53.520;10.104;2023-04-24T09:26:31;14.30;99.90
22271;DHT22;11304;53.520;10.104;2023-04-24T09:28:58;14.50;99.90
22271;DHT22;11304;53.520;10.104;2023-04-24T09:31:27;14.50;99.90
22271;DHT22;11304;53.520;10.104;2023-04-24T09:33:58;14.50;99.90
22271;DHT22;11304;53.520;10.104;2023-04-24T09:36:28;14.60;99.90
22271;DHT22;11304;53.520;10.104;2023-04-24T09:39:01;14.60;99.90
22271;DHT22;11304;53.520;10.104;2023-04-24T09:41:28;14.70;99.90
22271;DHT22;11304;53.520;10.104;2023-04-24T09:43:57;14.60;99.90
22271;DHT22;11304;53.520;10.104;2023-04-24T09:46:31;14.60;99.90
22271;DHT22;11304;53.520;10.104;2023-04-24T09:48:57;14.60;99.90
22271;DHT22;11304;53.520;10.104;2023-04-24T09:51:36;14.80;99.90
22271;DHT22;11304;53.520;10.104;2023-04-24T09:54:03;14.90;99.90
22271;DHT22;11304;53.520;10.104;2023-04-24T09:56:32;15.10;99.90
22271;DHT22;11304;53.520;10.104;2023-04-24T09:59:06;15.10;99.90
22271;DHT22;11304;53.520;10.104;2023-04-24T10:01:33;15.10;99.90
22271;DHT22;11304;53.520;10.104;2023-04-24T10:03:59;15.20;99.90
22271;DHT22;11304;53.520;10.104;2023-04-24T10:06:34;15.20;99.90
22271;DHT22;11304;53.520;10.104;2023-04-24T10:09:01;15.50;99.90
22271;DHT22;11304;53.520;10.104;2023-04-24T10:11:28;15.80;99.90
22271;DHT22;11304;53.520;10.104;2023-04-24T10:13:53;15.80;99.90
22271;DHT22;11304;53.520;10.104;2023-04-24T10:16:21;15.70;99.90
22271;DHT22;11304;53.520;10.104;2023-04-24T10:18:48;15.60;99.90
22271;DHT22;11304;53.520;10.104;2023-04-24T10:21:15;15.40;99.90
22271;DHT22;11304;53.520;10.104;2023-04-24T10:23:41;15.20;99.90
22271;DHT22;11304;53.520;10.104;2023-04-24T10:26:09;15.20;99.90
22271;DHT22;11304;53.520;10.104;2023-04-24T10:28:36;15.10;99.90
22271;DHT22;11304;53.520;10.104;2023-04-24T10:31:02;15.10;99.90
22271;DHT22;11304;53.520;10.104;2023-04-24T10:33:30;15.00;99.90
22271;DHT22;11304;53.520;10.104;2023-04-24T10:35:57;15.00;99.90
22271;DHT22;11304;53.520;10.104;2023-04-24T10:38:25;14.80;99.90
22271;DHT22;11304;53.520;10.104;2023-04-24T10:41:06;14.70;99.90
22271;DHT22;11304;53.520;10.104;2023-04-24T10:43:33;14.60;99.90
22271;DHT22;11304;53.520;10.104;2023-04-24T10:46:04;14.50;99.90
22271;DHT22;11304;53.520;10.104;2023-04-24T10:48:31;14.30;99.90
22271;DHT22;11304;53.520;10.104;2023-04-24T10:50:58;14.30;99.90
22271;DHT22;11304;53.520;10.104;2023-04-24T10:53:28;14.20;99.90
22271;DHT22;11304;53.520;10.104;2023-04-24T10:55:58;14.30;99.90
22271;DHT22;11304;53.520;10.104;2023-04-24T10:58:36;14.40;99.90
22271;DHT22;11304;53.520;10.104;2023-04-24T11:01:02;14.70;99.90
22271;DHT22;11304;53.520;10.104;2023-04-24T11:03:33;15.10;99.90
22271;DHT22;11304;53.520;10.104;2023-04-24T11:06:02;15.30;99.90
22271;DHT22;11304;53.520;10.104;2023-04-24T11:08:30;15.20;99.90
22271;DHT22;11304;53.520;10.104;2023-04-24T11:10:57;15.10;99.90
22271;DHT22;11304;53.520;10.104;2023-04-24T11:13:25;15.00;99.90
22271;DHT22;11304;53.520;10.104;2023-04-24T11:16:26;15.20;99.90
22271;DHT22;11304;53.520;10.104;2023-04-24T11:19:26;15.50;99.90
22271;DHT22;11304;53.520;10.104;2023-04-24T11:24:32;17.10;99.90
22271;DHT22;11304;53.520;10.104;2023-04-24T11:27:17;17.30;99.90
22271;DHT22;11304;53.520;10.104;2023-04-24T11:35:04;16.40;99.90
22271;DHT22;11304;53.520;10.104;2023-04-24T11:37:38;16.00;99.90
22271;DHT22;11304;53.520;10.104;2023-04-24T11:40:11;15.90;99.90
22271;DHT22;11304;53.520;10.104;2023-04-24T11:42:39;15.70;99.90
22271;DHT22;11304;53.520;10.104;2023-04-24T11:45:08;15.70;99.90
22271;DHT22;11304;53.520;10.104;2023-04-24T11:47:35;15.70;99.90
22271;DHT22;11304;53.520;10.104;2023-04-24T11:50:01;15.80;99.90
22271;DHT22;11304;53.520;10.104;2023-04-24T11:52:29;15.80;99.90
22271;DHT22;11304;53.520;10.104;2023-04-24T11:54:55;15.60;99.90
22271;DHT22;11304;53.520;10.104;2023-04-24T11:57:22;15.60;99.90
22271;DHT22;11304;53.520;10.104;2023-04-24T11:59:49;15.50;99.90
22271;DHT22;11304;53.520;10.104;2023-04-24T12:02:24;15.60;99.90
22271;DHT22;11304;53.520;10.104;2023-04-24T12:04:55;15.60;99.90
22271;DHT22;11304;53.520;10.104;2023-04-24T12:07:22;15.60;99.90
22271;DHT22;11304;53.520;10.104;2023-04-24T12:09:55;15.80;99.90
22271;DHT22;11304;53.520;10.104;2023-04-24T12:12:25;15.90;99.90
22271;DHT22;11304;53.520;10.104;2023-04-24T12:14:56;16.00;99.90
22271;DHT22;11304;53.520;10.104;2023-04-24T12:17:32;15.90;99.90
22271;DHT22;11304;53.520;10.104;2023-04-24T12:20:01;15.90;99.90
22271;DHT22;11304;53.520;10.104;2023-04-24T12:22:36;16.00;99.90
22271;DHT22;11304;53.520;10.104;2023-04-24T12:25:11;16.00;99.90
22271;DHT22;11304;53.520;10.104;2023-04-24T12:27:36;16.00;99.90
22271;DHT22;11304;53.520;10.104;2023-04-24T12:30:04;16.00;99.90
22271;DHT22;11304;53.520;10.104;2023-04-24T12:32:31;15.80;99.90
22271;DHT22;11304;53.520;10.104;2023-04-24T12:34:57;15.70;99.90
22271;DHT22;11304;53.520;10.104;2023-04-24T12:37:25;15.60;99.90
22271;DHT22;11304;53.520;10.104;2023-04-24T12:40:02;15.50;99.90
22271;DHT22;11304;53.520;10.104;2023-04-24T12:42:30;15.30;99.90
22271;DHT22;11304;53.520;10.104;2023-04-24T12:45:03;15.10;99.90
22271;DHT22;11304;53.520;10.104;2023-04-24T12:47:31;15.00;99.90
22271;DHT22;11304;53.520;10.104;2023-04-24T12:49:57;14.70;99.90
22271;DHT22;11304;53.520;10.104;2023-04-24T12:52:24;14.60;99.90
22271;DHT22;11304;53.520;10.104;2023-04-24T12:54:54;14.40;99.90
22271;DHT22;11304;53.520;10.104;2023-04-24T12:57:21;14.20;99.90
22271;DHT22;11304;53.520;10.104;2023-04-24T12:59:46;14.10;99.90
22271;DHT22;11304;53.520;10.104;2023-04-24T13:02:12;13.90;99.90
22271;DHT22;11304;53.520;10.104;2023-04-24T13:04:38;13.90;99.90
22271;DHT22;11304;53.520;10.104;2023-04-24T13:07:05;13.70;99.90
22271;DHT22;11304;53.520;10.104;2023-04-24T13:09:30;13.70;99.90
22271;DHT22;11304;53.520;10.104;2023-04-24T13:11:56;13.60;99.90
22271;DHT22;11304;53.520;10.104;2023-04-24T13:14:22;13.50;99.90
22271;DHT22;11304;53.520;10.104;2023-04-24T13:16:49;13.60;99.90
22271;DHT22;11304;53.520;10.104;2023-04-24T13:19:14;13.50;99.90
22271;DHT22;11304;53.520;10.104;2023-04-24T13:21:40;13.40;99.90
22271;DHT22;11304;53.520;10.104;2023-04-24T13:24:06;13.30;99.90
22271;DHT22;11304;53.520;10.104;2023-04-24T13:26:33;13.20;99.90
22271;DHT22;11304;53.520;10.104;2023-04-24T13:28:59;13.10;99.90
22271;DHT22;11304;53.520;10.104;2023-04-24T13:31:24;13.10;99.90
22271;DHT22;11304;53.520;10.104;2023-04-24T13:33:50;13.00;99.90
22271;DHT22;11304;53.520;10.104;2023-04-24T13:36:16;12.90;99.90
22271;DHT22;11304;53.520;10.104;2023-04-24T13:38:46;12.90;99.90
22271;DHT22;11304;53.520;10.104;2023-04-24T13:41:11;12.90;99.90
22271;DHT22;11304;53.520;10.104;2023-04-24T13:43:37;12.90;99.90
22271;DHT22;11304;53.520;10.104;2023-04-24T13:46:03;13.00;99.90
22271;DHT22;11304;53.520;10.104;2023-04-24T13:48:30;13.10;99.90
22271;DHT22;11304;53.520;10.104;2023-04-24T13:50:55;13.10;99.90
22271;DHT22;11304;53.520;10.104;2023-04-24T13:53:21;13.20;99.90
22271;DHT22;11304;53.520;10.104;2023-04-24T13:55:47;13.10;99.90
22271;DHT22;11304;53.520;10.104;2023-04-24T13:58:13;13.10;99.90
22271;DHT22;11304;53.520;10.104;2023-04-24T14:00:39;13.10;99.90
22271;DHT22;11304;53.520;10.104;2023-04-24T14:03:04;13.10;99.90
22271;DHT22;11304;53.520;10.104;2023-04-24T14:05:30;13.10;99.90
22271;DHT22;11304;53.520;10.104;2023-04-24T14:07:56;12.90;99.90
22271;DHT22;11304;53.520;10.104;2023-04-24T14:10:22;12.80;99.90
22271;DHT22;11304;53.520;10.104;2023-04-24T14:12:47;12.70;99.90
22271;DHT22;11304;53.520;10.104;2023-04-24T14:15:13;12.70;99.90
22271;DHT22;11304;53.520;10.104;2023-04-24T14:17:39;12.70;99.90
22271;DHT22;11304;53.520;10.104;2023-04-24T14:20:05;12.70;99.90
22271;DHT22;11304;53.520;10.104;2023-04-24T14:22:32;12.80;99.90
22271;DHT22;11304;53.520;10.104;2023-04-24T14:24:58;13.00;99.90
22271;DHT22;11304;53.520;10.104;2023-04-24T14:27:24;13.10;99.90
22271;DHT22;11304;53.520;10.104;2023-04-24T14:29:50;13.20;99.90
22271;DHT22;11304;53.520;10.104;2023-04-24T14:32:16;13.30;99.90
22271;DHT22;11304;53.520;10.104;2023-04-24T14:34:42;13.30;99.90
22271;DHT22;11304;53.520;10.104;2023-04-24T14:37:07;13.40;99.90
22271;DHT22;11304;53.520;10.104;2023-04-24T14:39:33;13.50;99.90
22271;DHT22;11304;53.520;10.104;2023-04-24T14:41:59;13.50;99.90
22271;DHT22;11304;53.520;10.104;2023-04-24T14:44:25;13.60;99.90
22271;DHT22;11304;53.520;10.104;2023-04-24T14:46:51;13.60;99.90
22271;DHT22;11304;53.520;10.104;2023-04-24T14:49:17;13.60;99.90
22271;DHT22;11304;53.520;10.104;2023-04-24T14:51:43;13.50;99.90
22271;DHT22;11304;53.520;10.104;2023-04-24T14:54:08;13.30;99.90
22271;DHT22;11304;53.520;10.104;2023-04-24T14:56:34;13.10;99.90
22271;DHT22;11304;53.520;10.104;2023-04-24T14:59:00;13.10;99.90
22271;DHT22;11304;53.520;10.104;2023-04-24T15:01:26;12.90;99.90
22271;DHT22;11304;53.520;10.104;2023-04-24T15:03:52;12.70;99.90
22271;DHT22;11304;53.520;10.104;2023-04-24T15:06:17;12.50;99.90
22271;DHT22;11304;53.520;10.104;2023-04-24T15:08:43;12.30;99.90
22271;DHT22;11304;53.520;10.104;2023-04-24T15:11:10;12.10;99.90
22271;DHT22;11304;53.520;10.104;2023-04-24T15:13:36;11.90;99.90
22271;DHT22;11304;53.520;10.104;2023-04-24T15:16:02;11.80;99.90
22271;DHT22;11304;53.520;10.104;2023-04-24T15:18:28;11.70;99.90
22271;DHT22;11304;53.520;10.104;2023-04-24T15:20:55;11.60;99.90